Pagina principale
METAR-TAF:

METAR-TAF

Aeroporti :

Aeroporto di Olbia-Costa Smeralda

Olbia, Italia

latitudine: 40-54N, longitudine: 009-31E, altezza: 11 m

Osservazione

Il bollettino è stato emesso 35 minuti fa, alle 15:50 UTC
Vento 20 kt da ovest
Temperature 15°C
Umidità 59%
Pressione 1010 hPa
Visibilità 10 km o più
Nubi sparse ad un'altezza di 3000 ft

METAR: LIEO 091550Z 26020KT 9999 SCT030 15/07 Q1010

Ora: 17:25 (16:25 UTC)

Previsione

Il bollettino è stato emesso 5 ore e 25 minuti fa, alle 11:00 UTC
Previsione valida dal 09 alle 12 UTC al 10 alle 12 UTC
Vento 18 kt da ovest con raffiche fino a 30 kt
Visibilità 10 km o più
Nubi sparse ad un'altezza di 3000 ft
Evoluzione graduale
dal 10 alle 00 UTC al 10 alle 03 UTC
Vento 15 kt da nord/nord-est
Temporaneamente
dal 10 alle 03 UTC al 10 alle 06 UTC
rovesci di pioggia

TAF: LIEO 091100Z 0912/1012 26018G30KT 9999 SCT030 BECMG 1000/1003 02015KT TEMPO 1003/1006 SHRA

Osservazioni e previsioni meteorologiche di più di 4000 aeroporti (messaggi METAR e TAF).

Le stazioni disponibili sono rappresentate dai dischi gialli e rossi sulla carta.

Puntare il mouse per vedere il nome della stazione.

Clicca sopra per visualizzare le osservazioni e previsioni meteorologiche.

Per cambiare la mappa : fare clic sui pulsanti verdi con una croce nera per ingrandire, il pulsante verde con un trattino per diminuire, o sulla freccia verde per le mappe adiacenti.


METAR-TAF: